Hauptseite
METAR-TAF:

METAR-TAF

Flughäfen :

Reschenpass, Italien

Breite: 46-50N, Länge: 010-30E, Höhe: 1800 m

Beobachtung

Neuester Wetterbericht von vor 1 Stunde und 12 Minuten, um 12:55 UTC
Wind 9 kt aus Nord, Böen bis zu 20 kt
Temperatur 24°C
Luftfeuchtigkeit 29%
Luftdruck 1026 hPa
Sichtweite 10 km oder mehr
Aufgelockert bewölkt in der Höhe von 3500 ft

METAR: LIVE 191255Z 01009G20KT 9999 SCT035 24/05 Q1026 RMK SCT VIS MIN 9999

Zeit: 16:07 (14:07 UTC)


TAF: fehlend

Wetterbeobachtungen und Prognosen von mehr als 4000 Flughäfen (METAR und TAF Bericht).

Die verfügbaren Stationen werden durch gelbe und rote Markierungen auf der Karte dargestellt.

Führen Sie die Maus auf sie, um den Namen der Station zu sehen.

Darauf klicken, um die Beobachtung von Wetterbeobachtungen und Prognosen zu sehen.

Um die Karte zu ändern : klicken Sie auf den grünen Tasten mit einem schwarzen Kreuz Zum Vergrößern, auf den grünen Button mit einem Gedankenstrich zu verkleinern, oder auf die grünen Pfeile für benachbarte Karten.


METAR-TAF: